sensor_id;sensor_type;location;lat;lon;timestamp;pressure;altitude;pressure_sealevel;temperature;humidity
14117;BME280;7137;51.436;6.544;2023-04-08T00:02:48;101772.88;;;9.72;100.00
14117;BME280;7137;51.436;6.544;2023-04-08T00:05:51;101774.47;;;9.83;100.00
14117;BME280;7137;51.436;6.544;2023-04-08T00:08:52;101779.56;;;9.94;100.00
14117;BME280;7137;51.436;6.544;2023-04-08T00:11:54;101779.41;;;10.06;100.00
14117;BME280;7137;51.436;6.544;2023-04-08T00:14:56;101783.81;;;10.04;100.00
14117;BME280;7137;51.436;6.544;2023-04-08T00:17:58;101779.38;;;10.09;100.00
14117;BME280;7137;51.436;6.544;2023-04-08T00:21:00;101784.75;;;9.97;100.00
14117;BME280;7137;51.436;6.544;2023-04-08T00:24:02;101781.25;;;10.00;100.00
14117;BME280;7137;51.436;6.544;2023-04-08T00:27:04;101783.00;;;9.96;100.00
14117;BME280;7137;51.436;6.544;2023-04-08T00:30:06;101782.25;;;9.85;100.00
14117;BME280;7137;51.436;6.544;2023-04-08T00:33:08;101791.97;;;9.74;100.00
14117;BME280;7137;51.436;6.544;2023-04-08T00:36:11;101796.94;;;9.95;100.00
14117;BME280;7137;51.436;6.544;2023-04-08T00:39:13;101792.59;;;9.96;100.00
14117;BME280;7137;51.436;6.544;2023-04-08T00:42:15;101788.28;;;9.92;100.00
14117;BME280;7137;51.436;6.544;2023-04-08T00:45:16;101791.00;;;9.86;100.00
14117;BME280;7137;51.436;6.544;2023-04-08T00:48:18;101788.25;;;9.95;100.00
14117;BME280;7137;51.436;6.544;2023-04-08T00:51:21;101798.72;;;9.93;100.00
14117;BME280;7137;51.436;6.544;2023-04-08T00:54:22;101796.97;;;9.94;100.00
14117;BME280;7137;51.436;6.544;2023-04-08T00:57:24;101803.31;;;9.73;100.00
14117;BME280;7137;51.436;6.544;2023-04-08T01:00:27;101805.84;;;9.77;100.00
14117;BME280;7137;51.436;6.544;2023-04-08T01:03:37;101807.56;;;9.80;100.00
14117;BME280;7137;51.436;6.544;2023-04-08T01:06:48;101809.66;;;9.43;100.00
14117;BME280;7137;51.436;6.544;2023-04-08T01:09:53;101802.59;;;9.54;100.00
14117;BME280;7137;51.436;6.544;2023-04-08T01:12:57;101804.41;;;9.49;100.00
14117;BME280;7137;51.436;6.544;2023-04-08T01:15:59;101806.94;;;9.53;100.00
14117;BME280;7137;51.436;6.544;2023-04-08T01:19:01;101803.50;;;9.50;100.00
14117;BME280;7137;51.436;6.544;2023-04-08T01:22:11;101812.28;;;9.41;100.00
14117;BME280;7137;51.436;6.544;2023-04-08T01:25:19;101810.63;;;9.33;100.00
14117;BME280;7137;51.436;6.544;2023-04-08T01:28:25;101811.44;;;9.38;100.00
14117;BME280;7137;51.436;6.544;2023-04-08T01:31:28;101807.06;;;9.40;100.00
14117;BME280;7137;51.436;6.544;2023-04-08T01:34:31;101814.88;;;9.44;100.00
14117;BME280;7137;51.436;6.544;2023-04-08T01:37:35;101813.09;;;9.49;100.00
14117;BME280;7137;51.436;6.544;2023-04-08T01:40:38;101811.34;;;9.48;100.00
14117;BME280;7137;51.436;6.544;2023-04-08T01:43:42;101810.53;;;9.45;100.00
14117;BME280;7137;51.436;6.544;2023-04-08T01:46:45;101810.34;;;9.63;100.00
14117;BME280;7137;51.436;6.544;2023-04-08T01:49:49;101814.66;;;9.66;100.00
14117;BME280;7137;51.436;6.544;2023-04-08T01:52:51;101809.44;;;9.67;100.00
14117;BME280;7137;51.436;6.544;2023-04-08T01:55:57;101815.78;;;9.39;100.00
14117;BME280;7137;51.436;6.544;2023-04-08T01:59:00;101816.72;;;9.33;100.00
14117;BME280;7137;51.436;6.544;2023-04-08T02:02:05;101816.78;;;9.22;100.00
14117;BME280;7137;51.436;6.544;2023-04-08T02:05:09;101808.06;;;9.30;100.00
14117;BME280;7137;51.436;6.544;2023-04-08T02:08:11;101807.13;;;9.34;100.00
14117;BME280;7137;51.436;6.544;2023-04-08T02:11:12;101817.59;;;9.32;100.00
14117;BME280;7137;51.436;6.544;2023-04-08T02:14:15;101808.78;;;9.45;100.00
14117;BME280;7137;51.436;6.544;2023-04-08T02:17:21;101806.19;;;9.41;100.00
14117;BME280;7137;51.436;6.544;2023-04-08T02:20:30;101800.97;;;9.41;100.00
14117;BME280;7137;51.436;6.544;2023-04-08T02:23:37;101803.72;;;9.27;100.00
14117;BME280;7137;51.436;6.544;2023-04-08T02:26:40;101807.06;;;9.41;100.00
14117;BME280;7137;51.436;6.544;2023-04-08T02:29:45;101809.66;;;9.41;100.00
14117;BME280;7137;51.436;6.544;2023-04-08T02:32:48;101813.88;;;9.58;100.00
14117;BME280;7137;51.436;6.544;2023-04-08T02:35:52;101819.22;;;9.42;100.00
14117;BME280;7137;51.436;6.544;2023-04-08T02:38:54;101818.59;;;9.16;100.00
14117;BME280;7137;51.436;6.544;2023-04-08T02:41:56;101817.75;;;9.09;100.00
14117;BME280;7137;51.436;6.544;2023-04-08T02:44:59;101822.09;;;9.09;100.00
14117;BME280;7137;51.436;6.544;2023-04-08T02:48:00;101820.44;;;9.02;100.00
14117;BME280;7137;51.436;6.544;2023-04-08T02:51:02;101825.63;;;9.00;100.00
14117;BME280;7137;51.436;6.544;2023-04-08T02:54:04;101812.69;;;8.86;100.00
14117;BME280;7137;51.436;6.544;2023-04-08T02:57:06;101829.22;;;8.88;100.00
14117;BME280;7137;51.436;6.544;2023-04-08T03:00:10;101824.91;;;8.81;100.00
14117;BME280;7137;51.436;6.544;2023-04-08T03:03:11;101824.16;;;8.62;100.00
14117;BME280;7137;51.436;6.544;2023-04-08T03:06:13;101821.47;;;8.72;100.00
14117;BME280;7137;51.436;6.544;2023-04-08T03:09:14;101828.34;;;8.83;100.00
14117;BME280;7137;51.436;6.544;2023-04-08T03:12:16;101824.97;;;8.68;100.00
14117;BME280;7137;51.436;6.544;2023-04-08T03:15:19;101832.75;;;8.78;100.00
14117;BME280;7137;51.436;6.544;2023-04-08T03:18:21;101828.41;;;8.77;100.00
14117;BME280;7137;51.436;6.544;2023-04-08T03:21:22;101825.75;;;8.82;100.00
14117;BME280;7137;51.436;6.544;2023-04-08T03:24:24;101822.31;;;8.80;100.00
14117;BME280;7137;51.436;6.544;2023-04-08T03:27:25;101826.59;;;8.88;100.00
14117;BME280;7137;51.436;6.544;2023-04-08T03:30:28;101826.53;;;8.96;100.00
14117;BME280;7137;51.436;6.544;2023-04-08T03:33:30;101834.44;;;8.88;100.00
14117;BME280;7137;51.436;6.544;2023-04-08T03:36:32;101830.94;;;8.91;100.00
14117;BME280;7137;51.436;6.544;2023-04-08T03:39:33;101828.34;;;8.89;100.00
14117;BME280;7137;51.436;6.544;2023-04-08T03:42:35;101831.78;;;8.93;100.00
14117;BME280;7137;51.436;6.544;2023-04-08T03:45:38;101831.88;;;8.79;100.00
14117;BME280;7137;51.436;6.544;2023-04-08T03:48:39;101834.56;;;8.62;100.00
14117;BME280;7137;51.436;6.544;2023-04-08T03:51:41;101838.97;;;8.44;100.00
14117;BME280;7137;51.436;6.544;2023-04-08T03:54:42;101836.34;;;8.51;100.00
14117;BME280;7137;51.436;6.544;2023-04-08T03:57:44;101845.97;;;8.39;100.00
14117;BME280;7137;51.436;6.544;2023-04-08T04:00:47;101847.72;;;8.37;100.00
14117;BME280;7137;51.436;6.544;2023-04-08T04:03:48;101849.44;;;8.33;100.00
14117;BME280;7137;51.436;6.544;2023-04-08T04:06:50;101846.00;;;8.22;100.00
14117;BME280;7137;51.436;6.544;2023-04-08T04:09:51;101845.97;;;8.31;100.00
14117;BME280;7137;51.436;6.544;2023-04-08T04:12:56;101849.44;;;8.28;100.00
14117;BME280;7137;51.436;6.544;2023-04-08T04:15:59;101852.94;;;8.21;100.00
14117;BME280;7137;51.436;6.544;2023-04-08T04:19:00;101850.44;;;7.77;100.00
14117;BME280;7137;51.436;6.544;2023-04-08T04:22:02;101859.13;;;7.64;100.00
14117;BME280;7137;51.436;6.544;2023-04-08T04:25:04;101866.06;;;7.51;100.00
14117;BME280;7137;51.436;6.544;2023-04-08T04:28:05;101864.31;;;7.45;100.00
14117;BME280;7137;51.436;6.544;2023-04-08T04:31:18;101872.13;;;7.58;100.00
14117;BME280;7137;51.436;6.544;2023-04-08T04:34:20;101871.25;;;7.71;100.00
14117;BME280;7137;51.436;6.544;2023-04-08T04:37:22;101867.81;;;7.61;100.00
14117;BME280;7137;51.436;6.544;2023-04-08T04:40:23;101877.31;;;7.56;100.00
14117;BME280;7137;51.436;6.544;2023-04-08T04:43:25;101880.78;;;7.67;100.00
14117;BME280;7137;51.436;6.544;2023-04-08T04:46:28;101875.59;;;7.52;100.00
14117;BME280;7137;51.436;6.544;2023-04-08T04:49:29;101884.25;;;7.65;100.00
14117;BME280;7137;51.436;6.544;2023-04-08T04:52:31;101879.91;;;7.78;100.00
14117;BME280;7137;51.436;6.544;2023-04-08T04:55:33;101889.47;;;7.62;100.00
14117;BME280;7137;51.436;6.544;2023-04-08T04:58:34;101891.22;;;7.63;100.00
14117;BME280;7137;51.436;6.544;2023-04-08T05:01:37;101892.06;;;7.68;100.00
14117;BME280;7137;51.436;6.544;2023-04-08T05:04:40;101886.00;;;7.46;100.00
14117;BME280;7137;51.436;6.544;2023-04-08T05:07:41;101893.78;;;7.66;100.00
14117;BME280;7137;51.436;6.544;2023-04-08T05:10:43;101885.13;;;7.52;100.00
14117;BME280;7137;51.436;6.544;2023-04-08T05:13:44;101893.78;;;7.57;100.00
14117;BME280;7137;51.436;6.544;2023-04-08T05:16:47;101889.47;;;7.36;100.00
14117;BME280;7137;51.436;6.544;2023-04-08T05:19:49;101890.34;;;7.49;100.00
14117;BME280;7137;51.436;6.544;2023-04-08T05:22:51;101893.78;;;7.57;100.00
14117;BME280;7137;51.436;6.544;2023-04-08T05:25:52;101909.41;;;7.49;100.00
14117;BME280;7137;51.436;6.544;2023-04-08T05:28:54;101905.06;;;7.40;100.00
14117;BME280;7137;51.436;6.544;2023-04-08T05:31:57;101916.25;;;7.15;100.00
14117;BME280;7137;51.436;6.544;2023-04-08T05:35:01;101918.91;;;7.18;100.00
14117;BME280;7137;51.436;6.544;2023-04-08T05:38:02;101931.03;;;7.37;100.00
14117;BME280;7137;51.436;6.544;2023-04-08T05:41:04;101929.34;;;7.49;100.00
14117;BME280;7137;51.436;6.544;2023-04-08T05:44:05;101932.78;;;7.38;100.00
14117;BME280;7137;51.436;6.544;2023-04-08T05:47:08;101932.75;;;7.29;100.00
14117;BME280;7137;51.436;6.544;2023-04-08T05:50:10;101931.94;;;7.52;100.00
14117;BME280;7137;51.436;6.544;2023-04-08T05:53:12;101935.41;;;7.61;100.00
14117;BME280;7137;51.436;6.544;2023-04-08T05:56:14;101938.88;;;7.66;100.00
14117;BME280;7137;51.436;6.544;2023-04-08T05:59:15;101938.84;;;7.56;100.00
14117;BME280;7137;51.436;6.544;2023-04-08T06:02:18;101933.66;;;7.72;100.00
14117;BME280;7137;51.436;6.544;2023-04-08T06:05:20;101950.97;;;7.57;100.00
14117;BME280;7137;51.436;6.544;2023-04-08T06:08:21;101947.53;;;7.68;100.00
14117;BME280;7137;51.436;6.544;2023-04-08T06:11:23;101962.25;;;7.69;100.00
14117;BME280;7137;51.436;6.544;2023-04-08T06:14:25;101950.16;;;7.76;100.00
14117;BME280;7137;51.436;6.544;2023-04-08T06:17:28;101957.94;;;7.65;100.00
14117;BME280;7137;51.436;6.544;2023-04-08T06:20:30;101956.19;;;7.69;100.00
14117;BME280;7137;51.436;6.544;2023-04-08T06:23:31;101964.00;;;7.70;100.00
14117;BME280;7137;51.436;6.544;2023-04-08T06:26:33;101970.94;;;7.79;100.00
14117;BME280;7137;51.436;6.544;2023-04-08T06:29:35;101971.78;;;8.01;100.00
14117;BME280;7137;51.436;6.544;2023-04-08T06:32:41;101968.31;;;8.02;100.00
14117;BME280;7137;51.436;6.544;2023-04-08T06:35:43;101970.97;;;7.90;100.00
14117;BME280;7137;51.436;6.544;2023-04-08T06:38:45;101982.22;;;8.02;100.00
14117;BME280;7137;51.436;6.544;2023-04-08T06:41:46;101986.56;;;8.05;100.00
14117;BME280;7137;51.436;6.544;2023-04-08T06:44:48;101978.75;;;8.07;100.00
14117;BME280;7137;51.436;6.544;2023-04-08T06:47:51;101981.34;;;7.68;100.00
14117;BME280;7137;51.436;6.544;2023-04-08T06:50:55;101996.03;;;7.42;100.00
14117;BME280;7137;51.436;6.544;2023-04-08T06:53:57;101992.63;;;7.61;100.00
14117;BME280;7137;51.436;6.544;2023-04-08T06:56:59;101990.88;;;7.66;100.00
14117;BME280;7137;51.436;6.544;2023-04-08T07:00:00;101993.44;;;7.57;100.00
14117;BME280;7137;51.436;6.544;2023-04-08T07:03:03;101997.75;;;7.43;100.00
14117;BME280;7137;51.436;6.544;2023-04-08T07:06:05;102001.16;;;7.18;100.00
14117;BME280;7137;51.436;6.544;2023-04-08T07:09:07;102005.41;;;7.02;100.00
14117;BME280;7137;51.436;6.544;2023-04-08T07:12:08;102008.91;;;7.04;100.00
14117;BME280;7137;51.436;6.544;2023-04-08T07:15:10;102014.88;;;6.89;100.00
14117;BME280;7137;51.436;6.544;2023-04-08T07:18:13;102011.47;;;7.02;100.00
14117;BME280;7137;51.436;6.544;2023-04-08T07:21:14;102027.13;;;7.14;100.00
14117;BME280;7137;51.436;6.544;2023-04-08T07:24:16;102019.38;;;7.31;100.00
14117;BME280;7137;51.436;6.544;2023-04-08T07:27:18;102017.66;;;7.29;100.00
14117;BME280;7137;51.436;6.544;2023-04-08T07:30:19;102026.38;;;7.57;100.00
14117;BME280;7137;51.436;6.544;2023-04-08T07:33:22;102022.06;;;7.54;100.00
14117;BME280;7137;51.436;6.544;2023-04-08T07:36:25;102022.09;;;7.77;100.00
14117;BME280;7137;51.436;6.544;2023-04-08T07:39:27;102030.78;;;7.90;100.00
14117;BME280;7137;51.436;6.544;2023-04-08T07:42:29;102029.91;;;8.24;100.00
14117;BME280;7137;51.436;6.544;2023-04-08T07:45:31;102025.59;;;8.17;100.00
14117;BME280;7137;51.436;6.544;2023-04-08T07:48:34;102031.66;;;8.21;100.00
14117;BME280;7137;51.436;6.544;2023-04-08T07:51:35;102034.28;;;8.47;100.00
14117;BME280;7137;51.436;6.544;2023-04-08T07:54:37;102038.63;;;8.48;100.00
14117;BME280;7137;51.436;6.544;2023-04-08T07:57:38;102036.88;;;8.41;100.00
14117;BME280;7137;51.436;6.544;2023-04-08T08:00:40;102052.50;;;8.39;100.00
14117;BME280;7137;51.436;6.544;2023-04-08T08:11:36;102057.69;;;8.25;100.00
14117;BME280;7137;51.436;6.544;2023-04-08T08:14:38;102063.75;;;8.06;100.00
14117;BME280;7137;51.436;6.544;2023-04-08T08:17:39;102060.25;;;8.16;100.00
14117;BME280;7137;51.436;6.544;2023-04-08T08:20:41;102066.34;;;8.04;100.00
14117;BME280;7137;51.436;6.544;2023-04-08T08:23:42;102067.22;;;8.10;100.00
14117;BME280;7137;51.436;6.544;2023-04-08T08:26:45;102067.22;;;8.29;100.00
14117;BME280;7137;51.436;6.544;2023-04-08T08:29:48;102074.16;;;8.15;100.00
14117;BME280;7137;51.436;6.544;2023-04-08T08:32:50;102090.66;;;8.19;100.00
14117;BME280;7137;51.436;6.544;2023-04-08T08:35:51;102097.56;;;7.94;100.00
14117;BME280;7137;51.436;6.544;2023-04-08T08:38:53;102092.38;;;8.12;100.00
14117;BME280;7137;51.436;6.544;2023-04-08T08:41:56;102096.75;;;8.31;100.00
14117;BME280;7137;51.436;6.544;2023-04-08T08:45:00;102105.41;;;8.24;100.00
14117;BME280;7137;51.436;6.544;2023-04-08T08:48:02;102095.00;;;8.30;100.00
14117;BME280;7137;51.436;6.544;2023-04-08T08:51:07;102097.56;;;8.96;100.00
14117;BME280;7137;51.436;6.544;2023-04-08T08:54:09;102101.81;;;9.29;100.00
14117;BME280;7137;51.436;6.544;2023-04-08T08:57:19;102102.72;;;9.08;99.56
14117;BME280;7137;51.436;6.544;2023-04-08T09:00:30;102101.63;;;9.66;98.89
14117;BME280;7137;51.436;6.544;2023-04-08T09:03:31;102105.03;;;9.80;94.82
14117;BME280;7137;51.436;6.544;2023-04-08T09:06:33;102103.28;;;9.82;95.66
14117;BME280;7137;51.436;6.544;2023-04-08T09:09:47;102098.63;;;10.33;95.84
14117;BME280;7137;51.436;6.544;2023-04-08T09:12:56;102094.63;;;12.21;85.03
14117;BME280;7137;51.436;6.544;2023-04-08T09:16:01;102100.06;;;10.64;88.32
14117;BME280;7137;51.436;6.544;2023-04-08T09:19:08;102106.41;;;11.23;88.15
14117;BME280;7137;51.436;6.544;2023-04-08T09:22:10;102107.56;;;15.73;69.24
14117;BME280;7137;51.436;6.544;2023-04-08T09:25:22;102108.81;;;15.60;66.83
14117;BME280;7137;51.436;6.544;2023-04-08T09:28:25;102104.16;;;13.67;73.28
14117;BME280;7137;51.436;6.544;2023-04-08T09:31:28;102103.00;;;13.80;73.48
14117;BME280;7137;51.436;6.544;2023-04-08T09:34:30;102107.22;;;12.53;76.12
14117;BME280;7137;51.436;6.544;2023-04-08T09:37:33;102110.13;;;12.86;78.06
14117;BME280;7137;51.436;6.544;2023-04-08T09:40:35;102116.81;;;13.47;77.44
14117;BME280;7137;51.436;6.544;2023-04-08T09:43:41;102114.47;;;12.87;78.93
14117;BME280;7137;51.436;6.544;2023-04-08T09:46:54;102123.78;;;13.03;75.25
14117;BME280;7137;51.436;6.544;2023-04-08T09:50:01;102115.84;;;13.06;74.74
14117;BME280;7137;51.436;6.544;2023-04-08T09:53:09;102116.00;;;13.45;74.11
14117;BME280;7137;51.436;6.544;2023-04-08T09:56:14;102128.97;;;13.92;71.66
14117;BME280;7137;51.436;6.544;2023-04-08T09:59:23;102133.41;;;14.63;70.99
14117;BME280;7137;51.436;6.544;2023-04-08T10:02:29;102130.13;;;14.89;69.84
14117;BME280;7137;51.436;6.544;2023-04-08T10:05:32;102124.56;;;13.54;72.08
14117;BME280;7137;51.436;6.544;2023-04-08T10:12:33;102116.81;;;14.95;66.96
14117;BME280;7137;51.436;6.544;2023-04-08T10:15:37;102118.34;;;17.00;60.24
14117;BME280;7137;51.436;6.544;2023-04-08T10:18:40;102123.69;;;17.46;57.36
14117;BME280;7137;51.436;6.544;2023-04-08T10:21:42;102126.00;;;15.42;61.72
14117;BME280;7137;51.436;6.544;2023-04-08T10:25:27;102124.44;;;15.37;63.99
14117;BME280;7137;51.436;6.544;2023-04-08T10:28:29;102126.31;;;15.32;62.59
14117;BME280;7137;51.436;6.544;2023-04-08T10:31:38;102116.16;;;14.53;67.13
14117;BME280;7137;51.436;6.544;2023-04-08T10:34:50;102128.53;;;15.45;66.16
14117;BME280;7137;51.436;6.544;2023-04-08T10:37:53;102111.63;;;15.84;63.16
14117;BME280;7137;51.436;6.544;2023-04-08T10:40:55;102115.88;;;15.60;61.79
14117;BME280;7137;51.436;6.544;2023-04-08T10:44:00;102111.94;;;15.43;63.06
14117;BME280;7137;51.436;6.544;2023-04-08T10:47:04;102110.47;;;15.33;61.43
14117;BME280;7137;51.436;6.544;2023-04-08T10:50:11;102109.59;;;15.93;63.18
14117;BME280;7137;51.436;6.544;2023-04-08T10:53:13;102100.44;;;16.31;57.83
14117;BME280;7137;51.436;6.544;2023-04-08T10:56:15;102100.88;;;16.18;55.34
14117;BME280;7137;51.436;6.544;2023-04-08T10:59:26;102103.47;;;15.01;57.92
14117;BME280;7137;51.436;6.544;2023-04-08T11:02:32;102108.03;;;15.27;55.43
14117;BME280;7137;51.436;6.544;2023-04-08T11:05:34;102100.69;;;14.75;56.98
14117;BME280;7137;51.436;6.544;2023-04-08T11:08:37;102102.81;;;13.03;57.38
14117;BME280;7137;51.436;6.544;2023-04-08T11:11:41;102108.66;;;12.71;59.48
14117;BME280;7137;51.436;6.544;2023-04-08T11:14:43;102093.22;;;12.54;61.27
14117;BME280;7137;51.436;6.544;2023-04-08T11:17:46;102088.16;;;12.43;60.02
14117;BME280;7137;51.436;6.544;2023-04-08T11:20:49;102088.22;;;12.40;62.01
14117;BME280;7137;51.436;6.544;2023-04-08T11:23:51;102095.09;;;12.46;63.68
14117;BME280;7137;51.436;6.544;2023-04-08T11:26:53;102097.88;;;12.37;63.86
14117;BME280;7137;51.436;6.544;2023-04-08T11:29:55;102093.94;;;12.10;62.25
14117;BME280;7137;51.436;6.544;2023-04-08T11:32:58;102099.63;;;11.76;64.90
14117;BME280;7137;51.436;6.544;2023-04-08T11:36:01;102090.66;;;11.97;64.83
14117;BME280;7137;51.436;6.544;2023-04-08T11:39:08;102093.44;;;11.86;65.65
14117;BME280;7137;51.436;6.544;2023-04-08T11:42:25;102101.81;;;11.45;67.01
14117;BME280;7137;51.436;6.544;2023-04-08T11:45:27;102101.94;;;11.35;68.52
14117;BME280;7137;51.436;6.544;2023-04-08T11:48:30;102101.69;;;11.53;69.15
14117;BME280;7137;51.436;6.544;2023-04-08T11:51:33;102100.66;;;11.66;69.57
14117;BME280;7137;51.436;6.544;2023-04-08T11:54:40;102111.25;;;11.57;69.60
14117;BME280;7137;51.436;6.544;2023-04-08T11:57:42;102109.13;;;11.86;69.87
14117;BME280;7137;51.436;6.544;2023-04-08T12:00:43;102113.25;;;12.03;68.55
14117;BME280;7137;51.436;6.544;2023-04-08T12:03:57;102113.34;;;11.98;67.85
14117;BME280;7137;51.436;6.544;2023-04-08T12:06:59;102117.25;;;11.65;67.99
14117;BME280;7137;51.436;6.544;2023-04-08T12:10:01;102118.13;;;11.64;68.00
14117;BME280;7137;51.436;6.544;2023-04-08T12:13:02;102113.38;;;11.97;68.77
14117;BME280;7137;51.436;6.544;2023-04-08T12:16:04;102115.81;;;12.06;68.75
14117;BME280;7137;51.436;6.544;2023-04-08T12:19:07;102110.16;;;11.73;68.64
14117;BME280;7137;51.436;6.544;2023-04-08T12:22:09;102105.19;;;12.16;66.54
14117;BME280;7137;51.436;6.544;2023-04-08T12:25:10;102108.69;;;12.15;65.98
14117;BME280;7137;51.436;6.544;2023-04-08T12:28:12;102111.44;;;12.62;67.00
14117;BME280;7137;51.436;6.544;2023-04-08T12:31:13;102114.19;;;13.02;62.84
14117;BME280;7137;51.436;6.544;2023-04-08T12:34:17;102110.44;;;13.15;64.62
14117;BME280;7137;51.436;6.544;2023-04-08T12:37:19;102114.31;;;12.96;64.46
14117;BME280;7137;51.436;6.544;2023-04-08T12:40:21;102116.03;;;13.43;62.41
14117;BME280;7137;51.436;6.544;2023-04-08T12:43:22;102113.97;;;13.14;62.81
14117;BME280;7137;51.436;6.544;2023-04-08T12:46:24;102115.81;;;13.07;63.26
14117;BME280;7137;51.436;6.544;2023-04-08T12:49:26;102113.19;;;13.54;61.79
14117;BME280;7137;51.436;6.544;2023-04-08T12:52:28;102116.94;;;13.82;61.01
14117;BME280;7137;51.436;6.544;2023-04-08T12:55:29;102112.22;;;13.58;61.75
14117;BME280;7137;51.436;6.544;2023-04-08T12:58:31;102109.06;;;12.94;64.86
14117;BME280;7137;51.436;6.544;2023-04-08T13:01:33;102115.00;;;12.58;63.72
14117;BME280;7137;51.436;6.544;2023-04-08T13:04:36;102114.97;;;12.59;66.44
14117;BME280;7137;51.436;6.544;2023-04-08T13:07:37;102110.78;;;12.47;67.35
14117;BME280;7137;51.436;6.544;2023-04-08T13:10:40;102111.63;;;12.99;64.79
14117;BME280;7137;51.436;6.544;2023-04-08T13:13:42;102112.28;;;13.55;63.40
14117;BME280;7137;51.436;6.544;2023-04-08T13:16:45;102102.72;;;13.52;63.67
14117;BME280;7137;51.436;6.544;2023-04-08T13:19:48;102106.03;;;13.60;63.52
14117;BME280;7137;51.436;6.544;2023-04-08T13:22:50;102099.78;;;14.05;62.48
14117;BME280;7137;51.436;6.544;2023-04-08T13:25:52;102090.78;;;13.36;63.84
14117;BME280;7137;51.436;6.544;2023-04-08T13:28:53;102092.66;;;14.10;62.73
14117;BME280;7137;51.436;6.544;2023-04-08T13:31:55;102095.31;;;13.71;62.66
14117;BME280;7137;51.436;6.544;2023-04-08T13:34:58;102086.66;;;13.26;62.96
14117;BME280;7137;51.436;6.544;2023-04-08T13:38:00;102083.66;;;12.99;64.88
14117;BME280;7137;51.436;6.544;2023-04-08T13:41:01;102091.69;;;13.35;64.01
14117;BME280;7137;51.436;6.544;2023-04-08T13:44:03;102094.31;;;13.35;64.89
14117;BME280;7137;51.436;6.544;2023-04-08T13:47:04;102091.31;;;13.10;64.95
14117;BME280;7137;51.436;6.544;2023-04-08T13:50:08;102081.53;;;13.17;66.01
14117;BME280;7137;51.436;6.544;2023-04-08T13:53:10;102086.56;;;13.71;63.34
14117;BME280;7137;51.436;6.544;2023-04-08T13:56:11;102082.41;;;13.17;64.44
14117;BME280;7137;51.436;6.544;2023-04-08T13:59:13;102082.38;;;13.20;64.47
14117;BME280;7137;51.436;6.544;2023-04-08T14:02:15;102084.81;;;13.29;64.94
14117;BME280;7137;51.436;6.544;2023-04-08T14:05:18;102079.66;;;13.26;66.55
14117;BME280;7137;51.436;6.544;2023-04-08T14:08:19;102076.38;;;13.14;65.39
14117;BME280;7137;51.436;6.544;2023-04-08T14:11:24;102076.66;;;13.83;65.26
14117;BME280;7137;51.436;6.544;2023-04-08T14:14:26;102081.63;;;13.95;65.01
14117;BME280;7137;51.436;6.544;2023-04-08T14:17:27;102075.56;;;13.53;65.31
14117;BME280;7137;51.436;6.544;2023-04-08T14:20:30;102074.41;;;13.26;67.20
14117;BME280;7137;51.436;6.544;2023-04-08T14:23:32;102077.63;;;13.39;66.95
14117;BME280;7137;51.436;6.544;2023-04-08T14:26:33;102064.22;;;13.08;68.61
14117;BME280;7137;51.436;6.544;2023-04-08T14:29:35;102076.22;;;12.75;69.01
14117;BME280;7137;51.436;6.544;2023-04-08T14:32:37;102070.78;;;12.86;70.84
14117;BME280;7137;51.436;6.544;2023-04-08T14:35:40;102070.16;;;12.73;70.96
14117;BME280;7137;51.436;6.544;2023-04-08T14:38:42;102061.81;;;12.51;71.33
14117;BME280;7137;51.436;6.544;2023-04-08T14:41:43;102072.13;;;12.60;71.14
14117;BME280;7137;51.436;6.544;2023-04-08T14:44:45;102069.25;;;12.74;70.84
14117;BME280;7137;51.436;6.544;2023-04-08T14:47:47;102072.72;;;12.76;71.94
14117;BME280;7137;51.436;6.544;2023-04-08T14:50:50;102070.31;;;12.64;72.64
14117;BME280;7137;51.436;6.544;2023-04-08T14:53:51;102067.81;;;12.58;71.35
14117;BME280;7137;51.436;6.544;2023-04-08T14:56:53;102066.72;;;12.71;72.11
14117;BME280;7137;51.436;6.544;2023-04-08T14:59:55;102069.38;;;13.14;72.22
14117;BME280;7137;51.436;6.544;2023-04-08T15:02:56;102071.22;;;13.51;69.46
14117;BME280;7137;51.436;6.544;2023-04-08T15:05:59;102073.50;;;13.27;70.32
14117;BME280;7137;51.436;6.544;2023-04-08T15:09:01;102068.06;;;13.35;72.12
14117;BME280;7137;51.436;6.544;2023-04-08T15:12:03;102074.72;;;13.10;71.41
14117;BME280;7137;51.436;6.544;2023-04-08T15:15:06;102066.09;;;13.03;73.66
14117;BME280;7137;51.436;6.544;2023-04-08T15:18:08;102075.19;;;12.85;73.04
14117;BME280;7137;51.436;6.544;2023-04-08T15:21:11;102076.78;;;12.44;74.60
14117;BME280;7137;51.436;6.544;2023-04-08T15:24:13;102075.06;;;12.43;77.56
14117;BME280;7137;51.436;6.544;2023-04-08T15:27:14;102072.31;;;12.49;76.07
14117;BME280;7137;51.436;6.544;2023-04-08T15:30:16;102076.34;;;12.69;76.88
14117;BME280;7137;51.436;6.544;2023-04-08T15:33:23;102073.78;;;12.66;76.27
14117;BME280;7137;51.436;6.544;2023-04-08T15:36:26;102072.91;;;12.67;76.97
14117;BME280;7137;51.436;6.544;2023-04-08T15:39:28;102074.38;;;12.80;77.68
14117;BME280;7137;51.436;6.544;2023-04-08T15:42:30;102067.91;;;12.53;79.02
14117;BME280;7137;51.436;6.544;2023-04-08T15:45:31;102073.06;;;12.58;79.04
14117;BME280;7137;51.436;6.544;2023-04-08T15:48:33;102071.97;;;12.69;78.80
14117;BME280;7137;51.436;6.544;2023-04-08T15:51:36;102071.00;;;12.75;77.50
14117;BME280;7137;51.436;6.544;2023-04-08T15:54:37;102068.78;;;12.54;79.41
14117;BME280;7137;51.436;6.544;2023-04-08T15:57:39;102075.16;;;12.39;78.35
14117;BME280;7137;51.436;6.544;2023-04-08T16:00:41;102077.28;;;12.14;80.95
14117;BME280;7137;51.436;6.544;2023-04-08T16:03:42;102073.09;;;12.04;82.00
14117;BME280;7137;51.436;6.544;2023-04-08T16:06:45;102074.09;;;11.94;82.04
14117;BME280;7137;51.436;6.544;2023-04-08T16:09:47;102064.56;;;11.89;82.77
14117;BME280;7137;51.436;6.544;2023-04-08T16:12:48;102064.56;;;11.89;82.39
14117;BME280;7137;51.436;6.544;2023-04-08T16:15:50;102065.41;;;11.92;82.76
14117;BME280;7137;51.436;6.544;2023-04-08T16:18:52;102068.97;;;11.87;82.24
14117;BME280;7137;51.436;6.544;2023-04-08T16:21:56;102061.22;;;11.77;82.56